DLH31T EDDN-EDLP
Flight info
| Callsign | DLH31T |
|---|---|
| Flight time | 0h 51m |
| Altitude | 16000 |
| Route | SULUS1G SULUS L604 GORKO Z722 ADIBA Z190 WRB WRB6H |
| Aircraft | AT76/M-SDFGIRY/S |
Departure
| Time | 2026-05-08 12:32 |
|---|---|
| Airport | Nuremberg Airport (EDDN) |
Arrival
| Time | 2026-05-08 13:23 |
|---|---|
| Airport | Paderborn Lippstadt Airport (EDLP) |
| Time | Latitude | Longitude | Altitude | Speed | Heading |
|---|---|---|---|---|---|
| 2026-05-08 12:09 | 49.49606 | 11.07993 | 1037 ft | 0 kts | 188° |
| 2026-05-08 12:28 | 49.49568 | 11.07995 | 1035 ft | 7 kts | 148° |
| 2026-05-08 12:28 | 49.49559 | 11.08051 | 1034 ft | 6 kts | 95° |
| 2026-05-08 12:28 | 49.49548 | 11.08178 | 1035 ft | 17 kts | 97° |
| 2026-05-08 12:28 | 49.49539 | 11.08332 | 1037 ft | 9 kts | 62° |
| 2026-05-08 12:29 | 49.49578 | 11.08361 | 1039 ft | 5 kts | 13° |
| 2026-05-08 12:29 | 49.49615 | 11.08425 | 1039 ft | 10 kts | 85° |
| 2026-05-08 12:29 | 49.49602 | 11.08586 | 1042 ft | 19 kts | 96° |
| 2026-05-08 12:29 | 49.49581 | 11.08826 | 1044 ft | 25 kts | 100° |
| 2026-05-08 12:30 | 49.49554 | 11.09070 | 1046 ft | 20 kts | 99° |
| 2026-05-08 12:30 | 49.49536 | 11.09250 | 1048 ft | 14 kts | 98° |
| 2026-05-08 12:30 | 49.49550 | 11.09395 | 1051 ft | 13 kts | 56° |
| 2026-05-08 12:30 | 49.49604 | 11.09506 | 1053 ft | 13 kts | 53° |
| 2026-05-08 12:31 | 49.49659 | 11.09570 | 1055 ft | 14 kts | 6° |
| 2026-05-08 12:31 | 49.49710 | 11.09429 | 1054 ft | 28 kts | 278° |
| 2026-05-08 12:31 | 49.49771 | 11.08810 | 1044 ft | 88 kts | 279° |
| 2026-05-08 12:31 | 49.49886 | 11.07639 | 1047 ft | 131 kts | 277° |
| 2026-05-08 12:32 | 49.50006 | 11.06213 | 1375 ft | 139 kts | 280° |
| 2026-05-08 12:32 | 49.50122 | 11.04689 | 1826 ft | 145 kts | 278° |
| 2026-05-08 12:32 | 49.50283 | 11.03155 | 2358 ft | 146 kts | 279° |
| 2026-05-08 12:32 | 49.50437 | 11.01619 | 2726 ft | 145 kts | 279° |
| 2026-05-08 12:33 | 49.50594 | 11.00084 | 3068 ft | 145 kts | 279° |
| 2026-05-08 12:33 | 49.50750 | 10.98546 | 3407 ft | 147 kts | 279° |
| 2026-05-08 12:33 | 49.50929 | 10.96881 | 3468 ft | 168 kts | 280° |
| 2026-05-08 12:33 | 49.51140 | 10.95036 | 3656 ft | 177 kts | 280° |
| 2026-05-08 12:34 | 49.51677 | 10.93375 | 3891 ft | 179 kts | 322° |
| 2026-05-08 12:34 | 49.52832 | 10.92690 | 4188 ft | 181 kts | 348° |
| 2026-05-08 12:34 | 49.54083 | 10.92433 | 4512 ft | 182 kts | 355° |
| 2026-05-08 12:34 | 49.55353 | 10.92387 | 4850 ft | 184 kts | 0° |
| 2026-05-08 12:35 | 49.56634 | 10.92445 | 5168 ft | 184 kts | 1° |
| 2026-05-08 12:35 | 49.57924 | 10.92514 | 5382 ft | 191 kts | 1° |
| 2026-05-08 12:35 | 49.59303 | 10.92581 | 5396 ft | 206 kts | 1° |
| 2026-05-08 12:35 | 49.60779 | 10.92648 | 5410 ft | 218 kts | 1° |
| 2026-05-08 12:36 | 49.62327 | 10.92722 | 5398 ft | 227 kts | 1° |
| 2026-05-08 12:36 | 49.63921 | 10.92793 | 5572 ft | 225 kts | 1° |
| 2026-05-08 12:36 | 49.65429 | 10.92844 | 6090 ft | 209 kts | 1° |
| 2026-05-08 12:36 | 49.66842 | 10.92877 | 6616 ft | 197 kts | 360° |
| 2026-05-08 12:37 | 49.68187 | 10.92888 | 7092 ft | 191 kts | 359° |
| 2026-05-08 12:37 | 49.69519 | 10.92891 | 7455 ft | 192 kts | 359° |
| 2026-05-08 12:37 | 49.70845 | 10.92763 | 7784 ft | 191 kts | 344° |
| 2026-05-08 12:37 | 49.72104 | 10.92120 | 8091 ft | 191 kts | 338° |
| 2026-05-08 12:38 | 49.73345 | 10.91372 | 8402 ft | 192 kts | 337° |
| 2026-05-08 12:38 | 49.74591 | 10.90625 | 8718 ft | 192 kts | 337° |
| 2026-05-08 12:38 | 49.75849 | 10.89893 | 9070 ft | 194 kts | 339° |
| 2026-05-08 12:38 | 49.77118 | 10.89195 | 9396 ft | 194 kts | 339° |
| 2026-05-08 12:39 | 49.78397 | 10.88503 | 9703 ft | 195 kts | 339° |
| 2026-05-08 12:39 | 49.79678 | 10.87813 | 10018 ft | 195 kts | 339° |
| 2026-05-08 12:39 | 49.80966 | 10.87125 | 10294 ft | 196 kts | 339° |
| 2026-05-08 12:39 | 49.82262 | 10.86433 | 10569 ft | 197 kts | 339° |
| 2026-05-08 12:40 | 49.83544 | 10.85746 | 10829 ft | 198 kts | 339° |
| 2026-05-08 12:40 | 49.84866 | 10.85035 | 11104 ft | 199 kts | 339° |
| 2026-05-08 12:40 | 49.86159 | 10.84343 | 11370 ft | 200 kts | 339° |
| 2026-05-08 12:40 | 49.87474 | 10.83637 | 11628 ft | 200 kts | 339° |
| 2026-05-08 12:41 | 49.88794 | 10.82926 | 11872 ft | 201 kts | 339° |
| 2026-05-08 12:41 | 49.90120 | 10.82213 | 12138 ft | 202 kts | 339° |
| 2026-05-08 12:41 | 49.91452 | 10.81498 | 12406 ft | 203 kts | 339° |
| 2026-05-08 12:41 | 49.92791 | 10.80777 | 12657 ft | 204 kts | 339° |
| 2026-05-08 12:42 | 49.94133 | 10.80054 | 12919 ft | 205 kts | 339° |
| 2026-05-08 12:42 | 49.95483 | 10.79328 | 13176 ft | 206 kts | 339° |
| 2026-05-08 12:42 | 49.96838 | 10.78600 | 13420 ft | 206 kts | 339° |
| 2026-05-08 12:42 | 49.98199 | 10.77867 | 13667 ft | 208 kts | 339° |
| 2026-05-08 12:43 | 49.99567 | 10.77128 | 13908 ft | 208 kts | 339° |
| 2026-05-08 12:43 | 50.00939 | 10.76388 | 14140 ft | 209 kts | 339° |
| 2026-05-08 12:43 | 50.02312 | 10.75646 | 14353 ft | 209 kts | 339° |
| 2026-05-08 12:43 | 50.03691 | 10.74899 | 14572 ft | 210 kts | 338° |
| 2026-05-08 12:44 | 50.05074 | 10.74155 | 14775 ft | 211 kts | 339° |
| 2026-05-08 12:44 | 50.06459 | 10.73404 | 14973 ft | 211 kts | 338° |
| 2026-05-08 12:44 | 50.07805 | 10.72520 | 15146 ft | 209 kts | 321° |
| 2026-05-08 12:44 | 50.08860 | 10.70996 | 15305 ft | 207 kts | 311° |
| 2026-05-08 12:45 | 50.09828 | 10.69324 | 15479 ft | 208 kts | 309° |
| 2026-05-08 12:45 | 50.10783 | 10.67641 | 15682 ft | 208 kts | 309° |
| 2026-05-08 12:45 | 50.11748 | 10.65962 | 15843 ft | 209 kts | 310° |
| 2026-05-08 12:45 | 50.12744 | 10.64290 | 15981 ft | 213 kts | 311° |
| 2026-05-08 12:46 | 50.13775 | 10.62588 | 16053 ft | 219 kts | 311° |
| 2026-05-08 12:46 | 50.14843 | 10.60835 | 16093 ft | 227 kts | 311° |
| 2026-05-08 12:46 | 50.15930 | 10.59047 | 16112 ft | 234 kts | 311° |
| 2026-05-08 12:46 | 50.17068 | 10.57188 | 16118 ft | 240 kts | 312° |
| 2026-05-08 12:47 | 50.18243 | 10.55289 | 16119 ft | 245 kts | 312° |
| 2026-05-08 12:47 | 50.19435 | 10.53356 | 16121 ft | 249 kts | 312° |
| 2026-05-08 12:47 | 50.20637 | 10.51389 | 16120 ft | 252 kts | 311° |
| 2026-05-08 12:47 | 50.21848 | 10.49398 | 16117 ft | 253 kts | 313° |
| 2026-05-08 12:48 | 50.23337 | 10.47962 | 16126 ft | 257 kts | 340° |
| 2026-05-08 12:48 | 50.25097 | 10.47357 | 16128 ft | 261 kts | 348° |
| 2026-05-08 12:48 | 50.26902 | 10.46939 | 16128 ft | 263 kts | 349° |
| 2026-05-08 12:48 | 50.28723 | 10.46533 | 16127 ft | 265 kts | 349° |
| 2026-05-08 12:49 | 50.30541 | 10.46067 | 16126 ft | 265 kts | 347° |
| 2026-05-08 12:49 | 50.32359 | 10.45536 | 16129 ft | 266 kts | 347° |
| 2026-05-08 12:49 | 50.34178 | 10.44998 | 16125 ft | 266 kts | 347° |
| 2026-05-08 12:49 | 50.35997 | 10.44463 | 16130 ft | 266 kts | 347° |
| 2026-05-08 12:50 | 50.37820 | 10.43929 | 16128 ft | 266 kts | 347° |
| 2026-05-08 12:50 | 50.39607 | 10.43404 | 16128 ft | 266 kts | 347° |
| 2026-05-08 12:50 | 50.41461 | 10.42859 | 16131 ft | 266 kts | 347° |
| 2026-05-08 12:50 | 50.43281 | 10.42323 | 16132 ft | 266 kts | 347° |
| 2026-05-08 12:51 | 50.45103 | 10.41786 | 16129 ft | 266 kts | 347° |
| 2026-05-08 12:51 | 50.48745 | 10.40715 | 16124 ft | 266 kts | 347° |
| 2026-05-08 12:51 | 50.50563 | 10.40176 | 16125 ft | 266 kts | 347° |
| 2026-05-08 12:52 | 50.52358 | 10.39648 | 16135 ft | 266 kts | 347° |
| 2026-05-08 12:52 | 50.55910 | 10.38226 | 16135 ft | 260 kts | 328° |
| 2026-05-08 12:52 | 50.57417 | 10.36683 | 16134 ft | 258 kts | 322° |
| 2026-05-08 12:53 | 50.58875 | 10.35018 | 16135 ft | 259 kts | 322° |
| 2026-05-08 12:53 | 50.60336 | 10.33351 | 16134 ft | 260 kts | 322° |
| 2026-05-08 12:53 | 50.61829 | 10.31729 | 16130 ft | 261 kts | 324° |
| 2026-05-08 12:53 | 50.63342 | 10.30145 | 16136 ft | 261 kts | 324° |
| 2026-05-08 12:54 | 50.64857 | 10.28549 | 16135 ft | 262 kts | 324° |
| 2026-05-08 12:54 | 50.66370 | 10.26948 | 16131 ft | 262 kts | 324° |
| 2026-05-08 12:54 | 50.67891 | 10.25355 | 16133 ft | 263 kts | 324° |
| 2026-05-08 12:54 | 50.69410 | 10.23749 | 16131 ft | 263 kts | 324° |
| 2026-05-08 12:55 | 50.70926 | 10.22142 | 16133 ft | 262 kts | 324° |
| 2026-05-08 12:55 | 50.72443 | 10.20536 | 16137 ft | 262 kts | 324° |
| 2026-05-08 12:55 | 50.73958 | 10.18930 | 16139 ft | 263 kts | 324° |
| 2026-05-08 12:55 | 50.75477 | 10.17319 | 16137 ft | 263 kts | 324° |
| 2026-05-08 12:56 | 50.76996 | 10.15707 | 16138 ft | 263 kts | 324° |
| 2026-05-08 12:56 | 50.78515 | 10.14097 | 16140 ft | 263 kts | 324° |
| 2026-05-08 12:56 | 50.80034 | 10.12482 | 16137 ft | 263 kts | 324° |
| 2026-05-08 12:56 | 50.81040 | 10.11411 | 16139 ft | 263 kts | 324° |
| 2026-05-08 12:57 | 50.82562 | 10.09789 | 16135 ft | 263 kts | 324° |
| 2026-05-08 12:57 | 50.84083 | 10.08162 | 16146 ft | 264 kts | 323° |
| 2026-05-08 12:57 | 50.86101 | 10.06014 | 16135 ft | 264 kts | 324° |
| 2026-05-08 12:57 | 50.87625 | 10.04388 | 16134 ft | 264 kts | 324° |
| 2026-05-08 12:58 | 50.88652 | 10.03291 | 16138 ft | 264 kts | 323° |
| 2026-05-08 12:58 | 50.90170 | 10.01664 | 16136 ft | 263 kts | 324° |
| 2026-05-08 12:58 | 50.91691 | 10.00045 | 16135 ft | 263 kts | 323° |
| 2026-05-08 12:58 | 50.93207 | 9.98423 | 16136 ft | 263 kts | 323° |
| 2026-05-08 12:59 | 50.94722 | 9.96801 | 16141 ft | 263 kts | 323° |
| 2026-05-08 12:59 | 50.96232 | 9.95167 | 16139 ft | 263 kts | 324° |
| 2026-05-08 12:59 | 50.97750 | 9.93552 | 16141 ft | 263 kts | 323° |
| 2026-05-08 12:59 | 50.99261 | 9.91926 | 16140 ft | 262 kts | 323° |
| 2026-05-08 13:00 | 51.00771 | 9.90303 | 16144 ft | 262 kts | 323° |
| 2026-05-08 13:00 | 51.02258 | 9.88697 | 16146 ft | 263 kts | 323° |
| 2026-05-08 13:00 | 51.03772 | 9.87068 | 16142 ft | 263 kts | 323° |
| 2026-05-08 13:00 | 51.05288 | 9.85434 | 16137 ft | 263 kts | 323° |
| 2026-05-08 13:01 | 51.06801 | 9.83802 | 16143 ft | 263 kts | 323° |
| 2026-05-08 13:01 | 51.08313 | 9.82167 | 16142 ft | 263 kts | 323° |
| 2026-05-08 13:01 | 51.09826 | 9.80533 | 16140 ft | 263 kts | 323° |
| 2026-05-08 13:01 | 51.11335 | 9.78899 | 16145 ft | 263 kts | 323° |
| 2026-05-08 13:02 | 51.12848 | 9.77261 | 16150 ft | 263 kts | 323° |
| 2026-05-08 13:02 | 51.14359 | 9.75623 | 16149 ft | 263 kts | 323° |
| 2026-05-08 13:02 | 51.15869 | 9.73985 | 16143 ft | 263 kts | 323° |
| 2026-05-08 13:02 | 51.17380 | 9.72346 | 16149 ft | 263 kts | 323° |
| 2026-05-08 13:03 | 51.18890 | 9.70701 | 16151 ft | 263 kts | 323° |
| 2026-05-08 13:03 | 51.20392 | 9.69047 | 16153 ft | 262 kts | 321° |
| 2026-05-08 13:03 | 51.21687 | 9.67039 | 16155 ft | 259 kts | 308° |
| 2026-05-08 13:03 | 51.22807 | 9.64796 | 16151 ft | 258 kts | 306° |
| 2026-05-08 13:04 | 51.23907 | 9.62533 | 16155 ft | 258 kts | 306° |
| 2026-05-08 13:04 | 51.25038 | 9.60295 | 16156 ft | 259 kts | 308° |
| 2026-05-08 13:04 | 51.26200 | 9.58091 | 16156 ft | 260 kts | 309° |
| 2026-05-08 13:04 | 51.27373 | 9.55890 | 16152 ft | 260 kts | 308° |
| 2026-05-08 13:05 | 51.28542 | 9.53688 | 16153 ft | 260 kts | 308° |
| 2026-05-08 13:05 | 51.29708 | 9.51479 | 16153 ft | 260 kts | 308° |
| 2026-05-08 13:05 | 51.30874 | 9.49268 | 16155 ft | 260 kts | 308° |
| 2026-05-08 13:05 | 51.32037 | 9.47059 | 16154 ft | 260 kts | 308° |
| 2026-05-08 13:06 | 51.33200 | 9.44850 | 16156 ft | 260 kts | 308° |
| 2026-05-08 13:06 | 51.34361 | 9.42639 | 16158 ft | 259 kts | 308° |
| 2026-05-08 13:06 | 51.35523 | 9.40426 | 16158 ft | 260 kts | 308° |
| 2026-05-08 13:06 | 51.36668 | 9.38243 | 16156 ft | 260 kts | 308° |
| 2026-05-08 13:07 | 51.37829 | 9.36030 | 16154 ft | 260 kts | 308° |
| 2026-05-08 13:07 | 51.38992 | 9.33807 | 16158 ft | 261 kts | 308° |
| 2026-05-08 13:07 | 51.40158 | 9.31582 | 16093 ft | 263 kts | 308° |
| 2026-05-08 13:07 | 51.41364 | 9.29274 | 15731 ft | 276 kts | 308° |
| 2026-05-08 13:08 | 51.42618 | 9.26863 | 15365 ft | 287 kts | 308° |
| 2026-05-08 13:08 | 51.43911 | 9.24366 | 14982 ft | 295 kts | 308° |
| 2026-05-08 13:08 | 51.45229 | 9.21813 | 14589 ft | 296 kts | 308° |
| 2026-05-08 13:08 | 51.46511 | 9.19274 | 14212 ft | 291 kts | 307° |
| 2026-05-08 13:09 | 51.47772 | 9.16757 | 13825 ft | 287 kts | 307° |
| 2026-05-08 13:09 | 51.49012 | 9.14277 | 13413 ft | 284 kts | 307° |
| 2026-05-08 13:09 | 51.50242 | 9.11821 | 13005 ft | 280 kts | 307° |
| 2026-05-08 13:09 | 51.51228 | 9.09188 | 12622 ft | 273 kts | 291° |
| 2026-05-08 13:10 | 51.51891 | 9.06348 | 12237 ft | 271 kts | 288° |
| 2026-05-08 13:10 | 51.52516 | 9.03497 | 11872 ft | 270 kts | 288° |
| 2026-05-08 13:10 | 51.53161 | 9.00667 | 11504 ft | 270 kts | 289° |
| 2026-05-08 13:10 | 51.53851 | 8.97867 | 11136 ft | 270 kts | 291° |
| 2026-05-08 13:11 | 51.54559 | 8.95082 | 10779 ft | 269 kts | 291° |
| 2026-05-08 13:11 | 51.55262 | 8.92292 | 10428 ft | 269 kts | 291° |
| 2026-05-08 13:11 | 51.55965 | 8.89504 | 10083 ft | 269 kts | 291° |
| 2026-05-08 13:11 | 51.56664 | 8.86716 | 9690 ft | 269 kts | 290° |
| 2026-05-08 13:12 | 51.57356 | 8.83919 | 9309 ft | 269 kts | 290° |
| 2026-05-08 13:12 | 51.58043 | 8.81161 | 8941 ft | 269 kts | 290° |
| 2026-05-08 13:12 | 51.58736 | 8.78375 | 8562 ft | 268 kts | 290° |
| 2026-05-08 13:12 | 51.59428 | 8.75595 | 8199 ft | 268 kts | 290° |
| 2026-05-08 13:13 | 51.60119 | 8.72813 | 7839 ft | 267 kts | 290° |
| 2026-05-08 13:13 | 51.60809 | 8.70044 | 7477 ft | 266 kts | 290° |
| 2026-05-08 13:13 | 51.61494 | 8.67284 | 7124 ft | 265 kts | 290° |
| 2026-05-08 13:13 | 51.62122 | 8.64515 | 6783 ft | 260 kts | 281° |
| 2026-05-08 13:14 | 51.62082 | 8.61655 | 6443 ft | 255 kts | 258° |
| 2026-05-08 13:14 | 51.61688 | 8.58894 | 6081 ft | 245 kts | 253° |
| 2026-05-08 13:14 | 51.61252 | 8.56412 | 5755 ft | 217 kts | 252° |
| 2026-05-08 13:14 | 51.60859 | 8.54184 | 5484 ft | 198 kts | 252° |
| 2026-05-08 13:15 | 51.60507 | 8.52129 | 5230 ft | 184 kts | 253° |
| 2026-05-08 13:15 | 51.60186 | 8.50205 | 4998 ft | 172 kts | 254° |
| 2026-05-08 13:15 | 51.59889 | 8.48350 | 4778 ft | 170 kts | 254° |
| 2026-05-08 13:15 | 51.59598 | 8.46484 | 4546 ft | 175 kts | 255° |
| 2026-05-08 13:16 | 51.59398 | 8.44521 | 4232 ft | 180 kts | 269° |
| 2026-05-08 13:16 | 51.59328 | 8.42522 | 3995 ft | 182 kts | 263° |
| 2026-05-08 13:16 | 51.59155 | 8.40541 | 3650 ft | 171 kts | 258° |
| 2026-05-08 13:16 | 51.58951 | 8.38721 | 3317 ft | 162 kts | 258° |
| 2026-05-08 13:17 | 51.58558 | 8.37128 | 3114 ft | 147 kts | 230° |
| 2026-05-08 13:17 | 51.57804 | 8.36192 | 3072 ft | 137 kts | 198° |
| 2026-05-08 13:17 | 51.56896 | 8.35818 | 3041 ft | 133 kts | 181° |
| 2026-05-08 13:17 | 51.56033 | 8.36073 | 3019 ft | 126 kts | 164° |
| 2026-05-08 13:18 | 51.55172 | 8.36416 | 3006 ft | 126 kts | 159° |
| 2026-05-08 13:18 | 51.54357 | 8.36898 | 3022 ft | 127 kts | 157° |
| 2026-05-08 13:18 | 51.53640 | 8.37631 | 2991 ft | 122 kts | 120° |
| 2026-05-08 13:18 | 51.53343 | 8.38885 | 3008 ft | 120 kts | 109° |
| 2026-05-08 13:19 | 51.53089 | 8.40193 | 3074 ft | 128 kts | 98° |
| 2026-05-08 13:19 | 51.53345 | 8.41588 | 3046 ft | 135 kts | 66° |
| 2026-05-08 13:19 | 51.53750 | 8.42954 | 3053 ft | 135 kts | 64° |
| 2026-05-08 13:19 | 51.54234 | 8.44241 | 3045 ft | 135 kts | 58° |
| 2026-05-08 13:20 | 51.54787 | 8.45510 | 2932 ft | 140 kts | 57° |
| 2026-05-08 13:20 | 51.55350 | 8.46783 | 2761 ft | 143 kts | 56° |
| 2026-05-08 13:20 | 51.55908 | 8.48115 | 2599 ft | 145 kts | 59° |
| 2026-05-08 13:20 | 51.56446 | 8.49479 | 2398 ft | 143 kts | 59° |
| 2026-05-08 13:21 | 51.56982 | 8.50805 | 2212 ft | 142 kts | 59° |
| 2026-05-08 13:21 | 51.57523 | 8.52130 | 1982 ft | 140 kts | 59° |
| 2026-05-08 13:21 | 51.58054 | 8.53419 | 1794 ft | 137 kts | 58° |
| 2026-05-08 13:21 | 51.58576 | 8.54685 | 1579 ft | 136 kts | 59° |
| 2026-05-08 13:22 | 51.59089 | 8.55941 | 1381 ft | 133 kts | 59° |
| 2026-05-08 13:22 | 51.59603 | 8.57188 | 1199 ft | 135 kts | 60° |
| 2026-05-08 13:22 | 51.60109 | 8.58402 | 1018 ft | 126 kts | 60° |
| 2026-05-08 13:22 | 51.60570 | 8.59537 | 829 ft | 117 kts | 60° |
| 2026-05-08 13:23 | 51.60990 | 8.60588 | 721 ft | 106 kts | 60° |
| 2026-05-08 13:23 | 51.61308 | 8.61404 | 709 ft | 46 kts | 56° |
| 2026-05-08 13:23 | 51.61433 | 8.61727 | 698 ft | 20 kts | 70° |
| 2026-05-08 13:23 | 51.61434 | 8.61854 | 706 ft | 6 kts | 97° |
| 2026-05-08 13:24 | 51.61435 | 8.61929 | 709 ft | 12 kts | 88° |
| 2026-05-08 13:24 | 51.61416 | 8.62006 | 714 ft | 0 kts | 140° |
| 2026-05-08 13:24 | 51.61348 | 8.62019 | 714 ft | 19 kts | 190° |
| 2026-05-08 13:24 | 51.61248 | 8.61986 | 726 ft | 9 kts | 184° |
| 2026-05-08 13:25 | 51.61223 | 8.62036 | 727 ft | 9 kts | 128° |
| 2026-05-08 13:25 | 51.61177 | 8.62081 | 727 ft | 7 kts | 147° |
| 2026-05-08 13:25 | 51.61169 | 8.62089 | 729 ft | 0 kts | 147° |